sensor_id;sensor_type;location;lat;lon;timestamp;P1;durP1;ratioP1;P2;durP2;ratioP2
26690;SDS011;14307;51.718;8.938;2023-09-19T00:00:23;10.68;;;9.93;;
26690;SDS011;14307;51.718;8.938;2023-09-19T00:02:57;10.32;;;9.57;;
26690;SDS011;14307;51.718;8.938;2023-09-19T00:05:27;10.82;;;9.90;;
26690;SDS011;14307;51.718;8.938;2023-09-19T00:07:56;10.82;;;10.02;;
26690;SDS011;14307;51.718;8.938;2023-09-19T00:10:27;11.23;;;10.07;;
26690;SDS011;14307;51.718;8.938;2023-09-19T00:12:58;11.00;;;10.05;;
26690;SDS011;14307;51.718;8.938;2023-09-19T00:15:26;11.50;;;10.48;;
26690;SDS011;14307;51.718;8.938;2023-09-19T00:17:56;13.05;;;11.68;;
26690;SDS011;14307;51.718;8.938;2023-09-19T00:20:23;12.25;;;11.38;;
26690;SDS011;14307;51.718;8.938;2023-09-19T00:22:50;12.38;;;11.02;;
26690;SDS011;14307;51.718;8.938;2023-09-19T00:25:20;13.60;;;10.98;;
26690;SDS011;14307;51.718;8.938;2023-09-19T00:27:47;13.32;;;11.82;;
26690;SDS011;14307;51.718;8.938;2023-09-19T00:30:17;12.27;;;11.13;;
26690;SDS011;14307;51.718;8.938;2023-09-19T00:32:47;12.90;;;11.32;;
26690;SDS011;14307;51.718;8.938;2023-09-19T00:35:15;12.73;;;11.68;;
26690;SDS011;14307;51.718;8.938;2023-09-19T00:37:42;12.25;;;11.13;;
26690;SDS011;14307;51.718;8.938;2023-09-19T00:40:09;13.45;;;12.15;;
26690;SDS011;14307;51.718;8.938;2023-09-19T00:42:39;13.32;;;12.05;;
26690;SDS011;14307;51.718;8.938;2023-09-19T00:45:10;13.30;;;12.15;;
26690;SDS011;14307;51.718;8.938;2023-09-19T00:47:40;13.05;;;11.95;;
26690;SDS011;14307;51.718;8.938;2023-09-19T00:50:08;14.15;;;12.95;;
26690;SDS011;14307;51.718;8.938;2023-09-19T00:52:37;13.88;;;12.70;;
26690;SDS011;14307;51.718;8.938;2023-09-19T00:55:06;13.40;;;11.85;;
26690;SDS011;14307;51.718;8.938;2023-09-19T00:57:34;13.73;;;12.38;;
26690;SDS011;14307;51.718;8.938;2023-09-19T01:00:02;13.98;;;12.50;;
26690;SDS011;14307;51.718;8.938;2023-09-19T01:02:33;13.70;;;12.55;;
26690;SDS011;14307;51.718;8.938;2023-09-19T01:05:01;13.90;;;12.80;;
26690;SDS011;14307;51.718;8.938;2023-09-19T01:07:31;14.13;;;13.02;;
26690;SDS011;14307;51.718;8.938;2023-09-19T01:10:00;13.00;;;12.15;;
26690;SDS011;14307;51.718;8.938;2023-09-19T01:18:27;13.25;;;12.35;;
26690;SDS011;14307;51.718;8.938;2023-09-19T01:23:52;14.93;;;13.73;;
26690;SDS011;14307;51.718;8.938;2023-09-19T01:29:37;14.40;;;13.00;;
26690;SDS011;14307;51.718;8.938;2023-09-19T01:32:06;14.70;;;13.35;;
26690;SDS011;14307;51.718;8.938;2023-09-19T01:34:53;15.45;;;14.10;;
26690;SDS011;14307;51.718;8.938;2023-09-19T01:37:23;15.77;;;14.45;;
26690;SDS011;14307;51.718;8.938;2023-09-19T01:39:54;14.60;;;13.60;;
26690;SDS011;14307;51.718;8.938;2023-09-19T01:42:33;15.80;;;14.52;;
26690;SDS011;14307;51.718;8.938;2023-09-19T01:45:11;15.68;;;14.15;;
26690;SDS011;14307;51.718;8.938;2023-09-19T01:47:45;15.68;;;14.48;;
26690;SDS011;14307;51.718;8.938;2023-09-19T01:50:22;16.20;;;14.57;;
26690;SDS011;14307;51.718;8.938;2023-09-19T01:52:59;18.70;;;15.52;;
26690;SDS011;14307;51.718;8.938;2023-09-19T01:55:33;16.55;;;15.15;;
26690;SDS011;14307;51.718;8.938;2023-09-19T01:58:16;16.55;;;15.45;;
26690;SDS011;14307;51.718;8.938;2023-09-19T02:00:53;16.05;;;14.85;;
26690;SDS011;14307;51.718;8.938;2023-09-19T02:03:23;16.40;;;14.95;;
26690;SDS011;14307;51.718;8.938;2023-09-19T02:05:51;16.95;;;14.50;;
26690;SDS011;14307;51.718;8.938;2023-09-19T02:08:20;16.80;;;15.07;;
26690;SDS011;14307;51.718;8.938;2023-09-19T02:10:50;16.33;;;15.13;;
26690;SDS011;14307;51.718;8.938;2023-09-19T02:13:21;16.17;;;14.52;;
26690;SDS011;14307;51.718;8.938;2023-09-19T02:15:56;16.23;;;14.95;;
26690;SDS011;14307;51.718;8.938;2023-09-19T02:18:22;16.90;;;15.40;;
26690;SDS011;14307;51.718;8.938;2023-09-19T02:20:49;16.33;;;15.18;;
26690;SDS011;14307;51.718;8.938;2023-09-19T02:23:17;16.73;;;15.43;;
26690;SDS011;14307;51.718;8.938;2023-09-19T02:25:51;15.82;;;14.18;;
26690;SDS011;14307;51.718;8.938;2023-09-19T02:28:23;17.55;;;15.77;;
26690;SDS011;14307;51.718;8.938;2023-09-19T02:30:50;16.88;;;15.40;;
26690;SDS011;14307;51.718;8.938;2023-09-19T02:33:17;16.05;;;14.80;;
26690;SDS011;14307;51.718;8.938;2023-09-19T02:35:44;16.67;;;15.25;;
26690;SDS011;14307;51.718;8.938;2023-09-19T02:38:11;17.25;;;15.77;;
26690;SDS011;14307;51.718;8.938;2023-09-19T02:40:38;17.23;;;15.55;;
26690;SDS011;14307;51.718;8.938;2023-09-19T02:43:06;17.08;;;15.63;;
26690;SDS011;14307;51.718;8.938;2023-09-19T02:45:35;18.10;;;16.20;;
26690;SDS011;14307;51.718;8.938;2023-09-19T02:48:02;23.17;;;17.30;;
26690;SDS011;14307;51.718;8.938;2023-09-19T02:50:29;17.73;;;15.95;;
26690;SDS011;14307;51.718;8.938;2023-09-19T02:52:56;17.83;;;16.02;;
26690;SDS011;14307;51.718;8.938;2023-09-19T02:55:23;17.15;;;15.65;;
26690;SDS011;14307;51.718;8.938;2023-09-19T02:57:51;17.10;;;15.70;;
26690;SDS011;14307;51.718;8.938;2023-09-19T03:00:19;17.35;;;15.60;;
26690;SDS011;14307;51.718;8.938;2023-09-19T03:02:48;18.25;;;15.98;;
26690;SDS011;14307;51.718;8.938;2023-09-19T03:05:19;17.45;;;15.65;;
26690;SDS011;14307;51.718;8.938;2023-09-19T03:07:48;16.60;;;14.98;;
26690;SDS011;14307;51.718;8.938;2023-09-19T03:10:19;16.60;;;14.88;;
26690;SDS011;14307;51.718;8.938;2023-09-19T03:12:46;18.00;;;16.33;;
26690;SDS011;14307;51.718;8.938;2023-09-19T03:15:14;17.40;;;15.80;;
26690;SDS011;14307;51.718;8.938;2023-09-19T03:17:46;17.17;;;15.57;;
26690;SDS011;14307;51.718;8.938;2023-09-19T03:20:17;17.92;;;16.13;;
26690;SDS011;14307;51.718;8.938;2023-09-19T03:22:46;19.25;;;15.82;;
26690;SDS011;14307;51.718;8.938;2023-09-19T03:25:15;17.95;;;16.25;;
26690;SDS011;14307;51.718;8.938;2023-09-19T03:27:46;17.52;;;16.02;;
26690;SDS011;14307;51.718;8.938;2023-09-19T03:30:13;17.25;;;15.20;;
26690;SDS011;14307;51.718;8.938;2023-09-19T03:32:47;17.13;;;15.50;;
26690;SDS011;14307;51.718;8.938;2023-09-19T03:35:17;19.17;;;17.08;;
26690;SDS011;14307;51.718;8.938;2023-09-19T03:37:45;18.02;;;16.42;;
26690;SDS011;14307;51.718;8.938;2023-09-19T03:40:13;18.95;;;16.92;;
26690;SDS011;14307;51.718;8.938;2023-09-19T03:42:42;23.05;;;17.33;;
26690;SDS011;14307;51.718;8.938;2023-09-19T03:45:12;18.88;;;16.95;;
26690;SDS011;14307;51.718;8.938;2023-09-19T03:47:44;18.75;;;17.10;;
26690;SDS011;14307;51.718;8.938;2023-09-19T03:50:15;20.80;;;16.75;;
26690;SDS011;14307;51.718;8.938;2023-09-19T03:52:44;23.05;;;18.58;;
26690;SDS011;14307;51.718;8.938;2023-09-19T03:55:11;23.80;;;17.90;;
26690;SDS011;14307;51.718;8.938;2023-09-19T03:57:39;18.63;;;16.73;;
26690;SDS011;14307;51.718;8.938;2023-09-19T04:00:07;19.00;;;17.33;;
26690;SDS011;14307;51.718;8.938;2023-09-19T04:02:38;18.92;;;17.10;;
26690;SDS011;14307;51.718;8.938;2023-09-19T04:05:06;18.67;;;16.85;;
26690;SDS011;14307;51.718;8.938;2023-09-19T04:07:34;19.35;;;16.80;;
26690;SDS011;14307;51.718;8.938;2023-09-19T04:10:01;23.10;;;17.17;;
26690;SDS011;14307;51.718;8.938;2023-09-19T04:12:29;20.55;;;18.48;;
26690;SDS011;14307;51.718;8.938;2023-09-19T04:14:55;21.88;;;18.08;;
26690;SDS011;14307;51.718;8.938;2023-09-19T04:17:22;19.40;;;17.27;;
26690;SDS011;14307;51.718;8.938;2023-09-19T04:19:52;20.17;;;18.48;;
26690;SDS011;14307;51.718;8.938;2023-09-19T04:22:19;19.63;;;17.95;;
26690;SDS011;14307;51.718;8.938;2023-09-19T04:24:46;18.55;;;16.63;;
26690;SDS011;14307;51.718;8.938;2023-09-19T04:27:13;19.10;;;17.40;;
26690;SDS011;14307;51.718;8.938;2023-09-19T04:29:41;19.20;;;17.40;;
26690;SDS011;14307;51.718;8.938;2023-09-19T04:32:08;19.52;;;17.27;;
26690;SDS011;14307;51.718;8.938;2023-09-19T04:34:36;18.95;;;17.17;;
26690;SDS011;14307;51.718;8.938;2023-09-19T04:37:04;18.95;;;16.95;;
26690;SDS011;14307;51.718;8.938;2023-09-19T04:39:32;25.77;;;18.42;;
26690;SDS011;14307;51.718;8.938;2023-09-19T04:42:00;28.33;;;19.20;;
26690;SDS011;14307;51.718;8.938;2023-09-19T04:44:27;21.30;;;16.92;;
26690;SDS011;14307;51.718;8.938;2023-09-19T04:46:54;23.60;;;16.52;;
26690;SDS011;14307;51.718;8.938;2023-09-19T04:49:21;18.45;;;16.90;;
26690;SDS011;14307;51.718;8.938;2023-09-19T04:51:48;21.52;;;16.90;;
26690;SDS011;14307;51.718;8.938;2023-09-19T04:54:15;19.95;;;17.88;;
26690;SDS011;14307;51.718;8.938;2023-09-19T04:56:42;26.75;;;17.15;;
26690;SDS011;14307;51.718;8.938;2023-09-19T04:59:09;24.83;;;18.30;;
26690;SDS011;14307;51.718;8.938;2023-09-19T05:01:37;20.30;;;18.30;;
26690;SDS011;14307;51.718;8.938;2023-09-19T05:04:04;19.40;;;17.42;;
26690;SDS011;14307;51.718;8.938;2023-09-19T05:06:31;18.05;;;16.52;;
26690;SDS011;14307;51.718;8.938;2023-09-19T05:08:59;18.98;;;17.25;;
26690;SDS011;14307;51.718;8.938;2023-09-19T05:11:26;19.63;;;17.85;;
26690;SDS011;14307;51.718;8.938;2023-09-19T05:13:56;20.42;;;17.15;;
26690;SDS011;14307;51.718;8.938;2023-09-19T05:16:23;22.52;;;17.10;;
26690;SDS011;14307;51.718;8.938;2023-09-19T05:18:50;18.88;;;16.95;;
26690;SDS011;14307;51.718;8.938;2023-09-19T05:21:18;18.42;;;16.80;;
26690;SDS011;14307;51.718;8.938;2023-09-19T05:23:45;19.45;;;17.55;;
26690;SDS011;14307;51.718;8.938;2023-09-19T05:26:12;22.70;;;18.77;;
26690;SDS011;14307;51.718;8.938;2023-09-19T05:28:41;22.33;;;18.33;;
26690;SDS011;14307;51.718;8.938;2023-09-19T05:31:09;20.60;;;18.45;;
26690;SDS011;14307;51.718;8.938;2023-09-19T05:33:36;21.48;;;19.02;;
26690;SDS011;14307;51.718;8.938;2023-09-19T05:36:03;23.23;;;18.75;;
26690;SDS011;14307;51.718;8.938;2023-09-19T05:38:30;20.48;;;18.40;;
26690;SDS011;14307;51.718;8.938;2023-09-19T05:40:59;24.92;;;19.08;;
26690;SDS011;14307;51.718;8.938;2023-09-19T05:43:25;20.52;;;18.48;;
26690;SDS011;14307;51.718;8.938;2023-09-19T05:45:52;24.80;;;18.52;;
26690;SDS011;14307;51.718;8.938;2023-09-19T05:48:22;20.77;;;18.60;;
26690;SDS011;14307;51.718;8.938;2023-09-19T05:50:49;21.15;;;18.95;;
26690;SDS011;14307;51.718;8.938;2023-09-19T05:53:16;20.50;;;18.48;;
26690;SDS011;14307;51.718;8.938;2023-09-19T05:55:44;27.25;;;19.50;;
26690;SDS011;14307;51.718;8.938;2023-09-19T05:58:11;20.85;;;18.80;;
26690;SDS011;14307;51.718;8.938;2023-09-19T06:00:44;23.02;;;18.90;;
26690;SDS011;14307;51.718;8.938;2023-09-19T06:03:13;21.38;;;18.80;;
26690;SDS011;14307;51.718;8.938;2023-09-19T06:05:41;23.65;;;19.42;;
26690;SDS011;14307;51.718;8.938;2023-09-19T06:08:08;19.83;;;17.83;;
26690;SDS011;14307;51.718;8.938;2023-09-19T06:10:35;26.73;;;19.70;;
26690;SDS011;14307;51.718;8.938;2023-09-19T06:13:03;20.10;;;18.25;;
26690;SDS011;14307;51.718;8.938;2023-09-19T06:15:36;21.50;;;19.33;;
26690;SDS011;14307;51.718;8.938;2023-09-19T06:18:03;23.95;;;19.27;;
26690;SDS011;14307;51.718;8.938;2023-09-19T06:20:31;25.73;;;19.05;;
26690;SDS011;14307;51.718;8.938;2023-09-19T06:22:59;23.00;;;18.88;;
26690;SDS011;14307;51.718;8.938;2023-09-19T06:25:28;21.65;;;19.17;;
26690;SDS011;14307;51.718;8.938;2023-09-19T06:27:55;21.33;;;18.85;;
26690;SDS011;14307;51.718;8.938;2023-09-19T06:30:22;21.45;;;19.20;;
26690;SDS011;14307;51.718;8.938;2023-09-19T06:32:59;20.75;;;18.83;;
26690;SDS011;14307;51.718;8.938;2023-09-19T06:35:27;23.00;;;20.00;;
26690;SDS011;14307;51.718;8.938;2023-09-19T06:37:59;21.48;;;19.42;;
26690;SDS011;14307;51.718;8.938;2023-09-19T06:40:29;23.70;;;19.75;;
26690;SDS011;14307;51.718;8.938;2023-09-19T06:42:57;22.45;;;20.30;;
26690;SDS011;14307;51.718;8.938;2023-09-19T06:45:24;21.73;;;19.48;;
26690;SDS011;14307;51.718;8.938;2023-09-19T06:47:54;26.05;;;19.90;;
26690;SDS011;14307;51.718;8.938;2023-09-19T06:50:25;21.20;;;19.00;;
26690;SDS011;14307;51.718;8.938;2023-09-19T06:52:54;20.90;;;18.88;;
26690;SDS011;14307;51.718;8.938;2023-09-19T06:55:21;22.13;;;19.85;;
26690;SDS011;14307;51.718;8.938;2023-09-19T06:57:54;22.60;;;20.38;;
26690;SDS011;14307;51.718;8.938;2023-09-19T07:00:21;22.00;;;19.75;;
26690;SDS011;14307;51.718;8.938;2023-09-19T07:05:27;130.02;;;32.35;;
26690;SDS011;14307;51.718;8.938;2023-09-19T07:07:54;28.00;;;19.92;;
26690;SDS011;14307;51.718;8.938;2023-09-19T07:10:22;26.52;;;19.88;;
26690;SDS011;14307;51.718;8.938;2023-09-19T07:13:00;33.30;;;20.83;;
26690;SDS011;14307;51.718;8.938;2023-09-19T07:15:29;21.90;;;19.77;;
26690;SDS011;14307;51.718;8.938;2023-09-19T07:18:00;26.48;;;19.80;;
26690;SDS011;14307;51.718;8.938;2023-09-19T07:20:27;38.15;;;20.30;;
26690;SDS011;14307;51.718;8.938;2023-09-19T07:22:58;22.35;;;18.70;;
26690;SDS011;14307;51.718;8.938;2023-09-19T07:25:28;24.25;;;19.90;;
26690;SDS011;14307;51.718;8.938;2023-09-19T07:27:56;21.90;;;19.70;;
26690;SDS011;14307;51.718;8.938;2023-09-19T07:30:27;22.65;;;20.27;;
26690;SDS011;14307;51.718;8.938;2023-09-19T07:32:54;22.02;;;19.77;;
26690;SDS011;14307;51.718;8.938;2023-09-19T07:35:21;28.70;;;20.52;;
26690;SDS011;14307;51.718;8.938;2023-09-19T07:37:48;20.98;;;18.80;;
26690;SDS011;14307;51.718;8.938;2023-09-19T07:40:17;21.23;;;19.17;;
26690;SDS011;14307;51.718;8.938;2023-09-19T07:42:45;21.25;;;19.42;;
26690;SDS011;14307;51.718;8.938;2023-09-19T07:45:13;21.35;;;19.48;;
26690;SDS011;14307;51.718;8.938;2023-09-19T07:47:43;21.02;;;19.05;;
26690;SDS011;14307;51.718;8.938;2023-09-19T07:50:12;22.75;;;20.50;;
26690;SDS011;14307;51.718;8.938;2023-09-19T07:52:39;21.75;;;19.65;;
26690;SDS011;14307;51.718;8.938;2023-09-19T07:55:07;21.42;;;19.30;;
26690;SDS011;14307;51.718;8.938;2023-09-19T07:57:37;22.27;;;18.83;;
26690;SDS011;14307;51.718;8.938;2023-09-19T08:00:04;21.50;;;19.40;;
26690;SDS011;14307;51.718;8.938;2023-09-19T08:02:36;21.55;;;19.27;;
26690;SDS011;14307;51.718;8.938;2023-09-19T08:05:08;20.95;;;19.02;;
26690;SDS011;14307;51.718;8.938;2023-09-19T08:07:37;22.65;;;20.20;;
26690;SDS011;14307;51.718;8.938;2023-09-19T08:10:05;22.65;;;20.00;;
26690;SDS011;14307;51.718;8.938;2023-09-19T08:12:39;21.50;;;19.52;;
26690;SDS011;14307;51.718;8.938;2023-09-19T08:17:41;23.30;;;19.25;;
26690;SDS011;14307;51.718;8.938;2023-09-19T08:20:09;21.60;;;19.55;;
26690;SDS011;14307;51.718;8.938;2023-09-19T08:22:50;21.48;;;19.40;;
26690;SDS011;14307;51.718;8.938;2023-09-19T08:25:22;22.15;;;19.98;;
26690;SDS011;14307;51.718;8.938;2023-09-19T08:27:51;21.52;;;19.27;;
26690;SDS011;14307;51.718;8.938;2023-09-19T08:30:19;21.63;;;19.77;;
26690;SDS011;14307;51.718;8.938;2023-09-19T08:32:51;22.98;;;20.52;;
26690;SDS011;14307;51.718;8.938;2023-09-19T08:35:25;22.67;;;20.45;;
26690;SDS011;14307;51.718;8.938;2023-09-19T08:37:52;23.02;;;20.52;;
26690;SDS011;14307;51.718;8.938;2023-09-19T08:40:19;21.65;;;19.55;;
26690;SDS011;14307;51.718;8.938;2023-09-19T08:42:53;22.58;;;19.88;;
26690;SDS011;14307;51.718;8.938;2023-09-19T08:48:03;21.75;;;19.77;;
26690;SDS011;14307;51.718;8.938;2023-09-19T08:53:47;23.30;;;20.97;;
26690;SDS011;14307;51.718;8.938;2023-09-19T08:56:18;28.15;;;22.27;;
26690;SDS011;14307;51.718;8.938;2023-09-19T08:58:48;24.80;;;21.48;;
26690;SDS011;14307;51.718;8.938;2023-09-19T09:01:20;22.83;;;20.55;;
26690;SDS011;14307;51.718;8.938;2023-09-19T09:03:54;24.58;;;20.25;;
26690;SDS011;14307;51.718;8.938;2023-09-19T09:06:22;30.60;;;20.95;;
26690;SDS011;14307;51.718;8.938;2023-09-19T09:08:50;25.20;;;21.83;;
26690;SDS011;14307;51.718;8.938;2023-09-19T09:11:18;27.30;;;21.38;;
26690;SDS011;14307;51.718;8.938;2023-09-19T09:13:46;22.63;;;20.70;;
26690;SDS011;14307;51.718;8.938;2023-09-19T09:16:14;23.58;;;21.25;;
26690;SDS011;14307;51.718;8.938;2023-09-19T09:18:45;25.60;;;21.85;;
26690;SDS011;14307;51.718;8.938;2023-09-19T09:21:19;29.92;;;21.10;;
26690;SDS011;14307;51.718;8.938;2023-09-19T09:23:48;27.13;;;22.65;;
26690;SDS011;14307;51.718;8.938;2023-09-19T09:26:19;29.17;;;21.75;;
26690;SDS011;14307;51.718;8.938;2023-09-19T09:29:09;23.52;;;21.35;;
26690;SDS011;14307;51.718;8.938;2023-09-19T09:31:36;24.70;;;22.17;;
26690;SDS011;14307;51.718;8.938;2023-09-19T09:34:04;23.88;;;21.80;;
26690;SDS011;14307;51.718;8.938;2023-09-19T09:36:35;25.33;;;22.58;;
26690;SDS011;14307;51.718;8.938;2023-09-19T09:39:04;25.05;;;20.85;;
26690;SDS011;14307;51.718;8.938;2023-09-19T09:41:51;23.27;;;20.85;;
26690;SDS011;14307;51.718;8.938;2023-09-19T09:44:18;24.48;;;22.10;;
26690;SDS011;14307;51.718;8.938;2023-09-19T09:46:46;28.83;;;22.77;;
26690;SDS011;14307;51.718;8.938;2023-09-19T09:49:23;24.90;;;22.60;;
26690;SDS011;14307;51.718;8.938;2023-09-19T09:52:04;24.92;;;22.52;;
26690;SDS011;14307;51.718;8.938;2023-09-19T09:55:02;30.02;;;22.65;;
26690;SDS011;14307;51.718;8.938;2023-09-19T09:57:32;27.67;;;22.35;;
26690;SDS011;14307;51.718;8.938;2023-09-19T10:00:00;24.67;;;22.10;;
26690;SDS011;14307;51.718;8.938;2023-09-19T10:02:39;25.42;;;22.17;;
26690;SDS011;14307;51.718;8.938;2023-09-19T10:07:53;22.25;;;20.40;;
26690;SDS011;14307;51.718;8.938;2023-09-19T10:13:09;27.98;;;22.30;;
26690;SDS011;14307;51.718;8.938;2023-09-19T10:15:48;22.80;;;21.13;;
26690;SDS011;14307;51.718;8.938;2023-09-19T10:18:23;99.85;;;26.40;;
26690;SDS011;14307;51.718;8.938;2023-09-19T10:20:54;23.38;;;21.10;;
26690;SDS011;14307;51.718;8.938;2023-09-19T10:23:23;23.42;;;21.23;;
26690;SDS011;14307;51.718;8.938;2023-09-19T10:25:55;22.15;;;20.35;;
26690;SDS011;14307;51.718;8.938;2023-09-19T10:28:25;25.92;;;20.70;;
26690;SDS011;14307;51.718;8.938;2023-09-19T10:30:55;23.88;;;21.50;;
26690;SDS011;14307;51.718;8.938;2023-09-19T10:33:23;23.75;;;21.45;;
26690;SDS011;14307;51.718;8.938;2023-09-19T10:35:56;23.95;;;21.83;;
26690;SDS011;14307;51.718;8.938;2023-09-19T10:38:26;23.85;;;21.95;;
26690;SDS011;14307;51.718;8.938;2023-09-19T10:40:56;24.77;;;22.52;;
26690;SDS011;14307;51.718;8.938;2023-09-19T10:43:31;28.60;;;22.23;;
26690;SDS011;14307;51.718;8.938;2023-09-19T10:46:02;24.83;;;22.65;;
26690;SDS011;14307;51.718;8.938;2023-09-19T10:48:33;24.33;;;22.13;;
26690;SDS011;14307;51.718;8.938;2023-09-19T10:53:41;25.33;;;22.95;;
26690;SDS011;14307;51.718;8.938;2023-09-19T10:56:24;26.42;;;24.25;;
26690;SDS011;14307;51.718;8.938;2023-09-19T10:59:06;26.35;;;24.15;;
26690;SDS011;14307;51.718;8.938;2023-09-19T11:01:42;26.02;;;23.85;;
26690;SDS011;14307;51.718;8.938;2023-09-19T11:04:30;26.25;;;23.90;;
26690;SDS011;14307;51.718;8.938;2023-09-19T11:07:01;25.40;;;23.58;;
26690;SDS011;14307;51.718;8.938;2023-09-19T11:14:58;25.45;;;23.60;;
26690;SDS011;14307;51.718;8.938;2023-09-19T11:17:32;26.08;;;23.80;;
26690;SDS011;14307;51.718;8.938;2023-09-19T11:30:36;25.23;;;23.02;;
26690;SDS011;14307;51.718;8.938;2023-09-19T11:33:17;25.55;;;23.17;;
26690;SDS011;14307;51.718;8.938;2023-09-19T11:35:58;24.83;;;22.88;;
26690;SDS011;14307;51.718;8.938;2023-09-19T11:43:52;25.23;;;23.08;;
26690;SDS011;14307;51.718;8.938;2023-09-19T11:49:27;25.80;;;23.60;;
26690;SDS011;14307;51.718;8.938;2023-09-19T11:52:00;25.55;;;23.33;;
26690;SDS011;14307;51.718;8.938;2023-09-19T11:54:31;24.65;;;22.50;;
26690;SDS011;14307;51.718;8.938;2023-09-19T11:56:59;25.25;;;22.75;;
26690;SDS011;14307;51.718;8.938;2023-09-19T11:59:27;24.88;;;22.58;;
26690;SDS011;14307;51.718;8.938;2023-09-19T12:02:03;26.73;;;23.85;;
26690;SDS011;14307;51.718;8.938;2023-09-19T12:04:38;24.60;;;22.38;;
26690;SDS011;14307;51.718;8.938;2023-09-19T12:07:09;31.60;;;24.98;;
26690;SDS011;14307;51.718;8.938;2023-09-19T12:09:44;26.25;;;23.73;;
26690;SDS011;14307;51.718;8.938;2023-09-19T12:12:21;24.13;;;21.95;;
26690;SDS011;14307;51.718;8.938;2023-09-19T12:14:59;25.42;;;23.25;;
26690;SDS011;14307;51.718;8.938;2023-09-19T12:17:39;24.85;;;22.52;;
26690;SDS011;14307;51.718;8.938;2023-09-19T12:20:10;26.83;;;23.33;;
26690;SDS011;14307;51.718;8.938;2023-09-19T12:22:46;25.08;;;22.98;;
26690;SDS011;14307;51.718;8.938;2023-09-19T12:25:13;26.63;;;23.98;;
26690;SDS011;14307;51.718;8.938;2023-09-19T12:27:46;24.33;;;22.23;;
26690;SDS011;14307;51.718;8.938;2023-09-19T12:30:15;25.02;;;22.48;;
26690;SDS011;14307;51.718;8.938;2023-09-19T12:32:53;25.25;;;22.77;;
26690;SDS011;14307;51.718;8.938;2023-09-19T12:35:32;25.65;;;23.15;;
26690;SDS011;14307;51.718;8.938;2023-09-19T12:38:05;25.95;;;23.80;;
26690;SDS011;14307;51.718;8.938;2023-09-19T12:40:34;26.77;;;24.60;;
26690;SDS011;14307;51.718;8.938;2023-09-19T12:43:03;26.77;;;24.42;;
26690;SDS011;14307;51.718;8.938;2023-09-19T12:45:33;25.25;;;22.88;;
26690;SDS011;14307;51.718;8.938;2023-09-19T12:48:22;24.80;;;22.88;;
26690;SDS011;14307;51.718;8.938;2023-09-19T12:50:59;24.60;;;22.60;;
26690;SDS011;14307;51.718;8.938;2023-09-19T12:53:36;25.25;;;23.08;;
26690;SDS011;14307;51.718;8.938;2023-09-19T12:56:10;25.05;;;23.05;;
26690;SDS011;14307;51.718;8.938;2023-09-19T12:58:56;25.83;;;23.73;;
26690;SDS011;14307;51.718;8.938;2023-09-19T13:01:29;23.90;;;21.88;;
26690;SDS011;14307;51.718;8.938;2023-09-19T13:06:48;26.13;;;23.67;;
26690;SDS011;14307;51.718;8.938;2023-09-19T13:09:17;24.00;;;21.98;;
26690;SDS011;14307;51.718;8.938;2023-09-19T13:11:46;25.83;;;23.55;;
26690;SDS011;14307;51.718;8.938;2023-09-19T13:14:18;25.63;;;23.52;;
26690;SDS011;14307;51.718;8.938;2023-09-19T13:25:02;23.98;;;21.88;;
26690;SDS011;14307;51.718;8.938;2023-09-19T13:27:30;25.02;;;22.60;;
26690;SDS011;14307;51.718;8.938;2023-09-19T13:29:58;23.70;;;21.35;;
26690;SDS011;14307;51.718;8.938;2023-09-19T13:32:25;25.08;;;22.52;;
26690;SDS011;14307;51.718;8.938;2023-09-19T13:34:52;24.50;;;22.52;;
26690;SDS011;14307;51.718;8.938;2023-09-19T13:37:19;25.20;;;23.08;;
26690;SDS011;14307;51.718;8.938;2023-09-19T13:39:46;25.65;;;23.58;;
26690;SDS011;14307;51.718;8.938;2023-09-19T13:42:14;23.92;;;21.50;;
26690;SDS011;14307;51.718;8.938;2023-09-19T13:44:42;22.85;;;21.05;;
26690;SDS011;14307;51.718;8.938;2023-09-19T13:47:09;21.35;;;19.65;;
26690;SDS011;14307;51.718;8.938;2023-09-19T13:49:39;22.83;;;21.02;;
26690;SDS011;14307;51.718;8.938;2023-09-19T13:52:06;22.65;;;20.88;;
26690;SDS011;14307;51.718;8.938;2023-09-19T13:54:33;22.30;;;20.33;;
26690;SDS011;14307;51.718;8.938;2023-09-19T13:57:00;21.77;;;20.08;;
26690;SDS011;14307;51.718;8.938;2023-09-19T13:59:27;23.30;;;21.52;;
26690;SDS011;14307;51.718;8.938;2023-09-19T14:01:54;22.83;;;21.00;;
26690;SDS011;14307;51.718;8.938;2023-09-19T14:04:21;25.70;;;23.70;;
26690;SDS011;14307;51.718;8.938;2023-09-19T14:06:48;22.95;;;21.00;;
26690;SDS011;14307;51.718;8.938;2023-09-19T14:09:15;22.55;;;20.73;;
26690;SDS011;14307;51.718;8.938;2023-09-19T14:11:45;25.17;;;23.20;;
26690;SDS011;14307;51.718;8.938;2023-09-19T14:14:14;25.13;;;23.13;;
26690;SDS011;14307;51.718;8.938;2023-09-19T14:16:41;23.45;;;21.65;;
26690;SDS011;14307;51.718;8.938;2023-09-19T14:19:08;26.02;;;23.83;;
26690;SDS011;14307;51.718;8.938;2023-09-19T14:21:35;24.23;;;22.20;;
26690;SDS011;14307;51.718;8.938;2023-09-19T14:24:02;22.95;;;21.00;;
26690;SDS011;14307;51.718;8.938;2023-09-19T14:26:29;24.13;;;22.25;;
26690;SDS011;14307;51.718;8.938;2023-09-19T14:28:56;24.70;;;22.77;;
26690;SDS011;14307;51.718;8.938;2023-09-19T14:31:25;25.27;;;23.08;;
26690;SDS011;14307;51.718;8.938;2023-09-19T14:33:54;25.83;;;23.67;;
26690;SDS011;14307;51.718;8.938;2023-09-19T14:36:25;24.27;;;22.20;;
26690;SDS011;14307;51.718;8.938;2023-09-19T14:38:52;25.40;;;23.20;;
26690;SDS011;14307;51.718;8.938;2023-09-19T14:41:25;24.75;;;22.90;;
26690;SDS011;14307;51.718;8.938;2023-09-19T14:43:52;23.48;;;21.58;;
26690;SDS011;14307;51.718;8.938;2023-09-19T14:46:19;23.83;;;21.92;;
26690;SDS011;14307;51.718;8.938;2023-09-19T14:48:46;24.73;;;22.83;;
26690;SDS011;14307;51.718;8.938;2023-09-19T14:51:13;24.75;;;22.65;;
26690;SDS011;14307;51.718;8.938;2023-09-19T14:53:40;25.75;;;23.50;;
26690;SDS011;14307;51.718;8.938;2023-09-19T14:56:08;24.83;;;22.90;;
26690;SDS011;14307;51.718;8.938;2023-09-19T14:58:35;25.20;;;23.23;;
26690;SDS011;14307;51.718;8.938;2023-09-19T15:03:34;24.63;;;22.63;;
26690;SDS011;14307;51.718;8.938;2023-09-19T15:06:06;24.90;;;22.65;;
26690;SDS011;14307;51.718;8.938;2023-09-19T15:08:35;25.40;;;23.30;;
26690;SDS011;14307;51.718;8.938;2023-09-19T15:11:07;25.13;;;22.92;;
26690;SDS011;14307;51.718;8.938;2023-09-19T15:13:34;25.98;;;23.70;;
26690;SDS011;14307;51.718;8.938;2023-09-19T15:16:02;24.23;;;22.52;;
26690;SDS011;14307;51.718;8.938;2023-09-19T15:18:30;24.73;;;22.85;;
26690;SDS011;14307;51.718;8.938;2023-09-19T15:21:00;24.65;;;22.65;;
26690;SDS011;14307;51.718;8.938;2023-09-19T15:23:27;24.50;;;22.77;;
26690;SDS011;14307;51.718;8.938;2023-09-19T15:25:58;23.00;;;21.20;;
26690;SDS011;14307;51.718;8.938;2023-09-19T15:28:25;25.20;;;22.90;;
26690;SDS011;14307;51.718;8.938;2023-09-19T15:31:07;26.58;;;24.05;;
26690;SDS011;14307;51.718;8.938;2023-09-19T15:33:35;25.83;;;23.65;;
26690;SDS011;14307;51.718;8.938;2023-09-19T15:36:06;25.58;;;23.45;;
26690;SDS011;14307;51.718;8.938;2023-09-19T15:41:26;26.00;;;23.70;;
26690;SDS011;14307;51.718;8.938;2023-09-19T15:43:55;24.48;;;22.30;;
26690;SDS011;14307;51.718;8.938;2023-09-19T15:46:23;24.00;;;22.10;;
26690;SDS011;14307;51.718;8.938;2023-09-19T15:48:49;25.65;;;23.15;;